createdAt,value
2022-12-18T00:01:18.331Z,84.08
2022-12-18T00:03:46.048Z,83.45
2022-12-18T00:06:15.686Z,82.68
2022-12-18T00:08:44.145Z,82.27
2022-12-18T00:11:17.616Z,81.66
2022-12-18T00:13:44.557Z,81.19
2022-12-18T00:16:14.960Z,81.27
2022-12-18T00:18:43.395Z,81.25
2022-12-18T00:21:12.816Z,81.49
2022-12-18T00:23:41.884Z,81.20
2022-12-18T00:26:16.229Z,81.15
2022-12-18T00:28:44.791Z,81.15
2022-12-18T00:31:16.681Z,81.11
2022-12-18T00:33:44.238Z,81.13
2022-12-18T00:36:14.499Z,81.23
2022-12-18T00:38:42.295Z,81.46
2022-12-18T00:41:11.512Z,81.25
2022-12-18T00:43:40.080Z,81.24
2022-12-18T00:46:07.596Z,81.29
2022-12-18T00:48:34.706Z,81.01
2022-12-18T00:51:01.681Z,81.29
2022-12-18T00:53:28.915Z,81.11
2022-12-18T00:55:56.852Z,80.71
2022-12-18T00:58:24.064Z,80.76
2022-12-18T01:00:51.124Z,80.81
2022-12-18T01:03:18.339Z,80.86
2022-12-18T01:05:45.339Z,80.79
2022-12-18T01:08:12.440Z,80.50
2022-12-18T01:10:42.739Z,80.09
2022-12-18T01:13:10.090Z,79.93
2022-12-18T01:15:37.336Z,80.00
2022-12-18T01:18:04.543Z,79.95
2022-12-18T01:20:31.560Z,79.82
2022-12-18T01:22:58.912Z,79.74
2022-12-18T01:25:27.707Z,79.89
2022-12-18T01:27:54.716Z,79.85
2022-12-18T01:30:21.813Z,80.23
2022-12-18T01:32:48.906Z,80.50
2022-12-18T01:35:16.148Z,80.36
2022-12-18T01:37:43.162Z,80.81
2022-12-18T01:40:10.929Z,80.77
2022-12-18T01:42:38.194Z,80.62
2022-12-18T01:45:24.644Z,80.63
2022-12-18T01:47:54.872Z,80.87
2022-12-18T01:50:43.253Z,80.65
2022-12-18T01:53:24.922Z,80.30
2022-12-18T01:55:55.747Z,80.13
2022-12-18T01:58:50.636Z,80.05
2022-12-18T02:01:18.038Z,80.07
2022-12-18T02:03:45.552Z,79.88
2022-12-18T02:06:24.726Z,79.74
2022-12-18T02:08:55.848Z,79.86
2022-12-18T02:11:48.950Z,79.57
2022-12-18T02:14:39.500Z,79.22
2022-12-18T02:17:15.158Z,78.89
2022-12-18T02:19:55.231Z,78.48
2022-12-18T02:22:25.216Z,77.99
2022-12-18T02:25:01.385Z,77.94
2022-12-18T02:27:31.984Z,78.20
2022-12-18T02:30:02.905Z,78.20
2022-12-18T02:32:35.512Z,78.44
2022-12-18T02:35:05.933Z,78.62
2022-12-18T02:37:35.300Z,78.28
2022-12-18T02:40:05.473Z,78.65
2022-12-18T02:42:35.491Z,78.78
2022-12-18T02:45:05.575Z,79.01
2022-12-18T02:47:39.472Z,79.02
2022-12-18T02:50:31.282Z,79.02
2022-12-18T02:53:40.688Z,79.44
2022-12-18T02:56:21.014Z,79.50
2022-12-18T02:59:01.104Z,79.87
2022-12-18T03:01:59.945Z,80.06
2022-12-18T03:04:35.506Z,79.97
2022-12-18T03:07:10.240Z,79.87
2022-12-18T03:09:43.286Z,80.17
2022-12-18T03:12:25.880Z,80.22
2022-12-18T03:15:08.976Z,80.35
2022-12-18T03:17:42.999Z,80.65
2022-12-18T03:20:15.963Z,80.74
2022-12-18T03:22:47.657Z,80.92
2022-12-18T03:25:18.741Z,80.94
2022-12-18T03:27:52.612Z,81.07
2022-12-18T03:30:21.291Z,81.29
2022-12-18T03:33:00.526Z,81.39
2022-12-18T03:35:34.617Z,81.41
2022-12-18T03:38:02.272Z,81.64
2022-12-18T03:41:12.573Z,81.62
2022-12-18T03:44:14.244Z,81.70
2022-12-18T03:46:53.649Z,81.69
2022-12-18T03:49:30.887Z,81.74
2022-12-18T03:52:08.456Z,81.62
2022-12-18T03:54:38.304Z,81.90
2022-12-18T03:57:18.000Z,82.04
2022-12-18T03:59:48.059Z,82.38
2022-12-18T04:02:19.042Z,82.59
2022-12-18T04:04:49.182Z,82.52
2022-12-18T04:07:18.297Z,82.56
2022-12-18T04:09:47.197Z,83.11
2022-12-18T04:12:15.498Z,83.29
2022-12-18T04:14:43.012Z,83.05
2022-12-18T04:17:10.815Z,82.93
2022-12-18T04:19:38.033Z,83.21
2022-12-18T04:22:05.205Z,83.30
2022-12-18T04:24:39.709Z,83.61
2022-12-18T04:27:17.257Z,83.49
2022-12-18T04:29:48.810Z,83.35
2022-12-18T04:32:18.721Z,83.38
2022-12-18T04:34:45.876Z,83.50
2022-12-18T04:37:12.901Z,83.55
2022-12-18T04:39:40.266Z,83.50
2022-12-18T04:42:14.566Z,83.94
2022-12-18T04:44:41.680Z,84.08
2022-12-18T04:47:08.828Z,84.44
2022-12-18T04:49:35.892Z,84.50
2022-12-18T04:52:02.996Z,84.28
2022-12-18T04:54:30.101Z,84.52
2022-12-18T04:56:57.253Z,84.83
2022-12-18T04:59:24.287Z,84.62
2022-12-18T05:01:51.703Z,84.66
2022-12-18T05:04:18.971Z,85.15
2022-12-18T05:06:47.081Z,85.12
2022-12-18T05:09:14.320Z,85.58
2022-12-18T05:11:41.461Z,85.41
2022-12-18T05:14:08.438Z,85.28
2022-12-18T05:16:35.453Z,85.11
2022-12-18T05:19:02.491Z,85.16
2022-12-18T05:21:29.677Z,85.72
2022-12-18T05:23:56.815Z,85.64
2022-12-18T05:26:23.910Z,85.61
2022-12-18T05:28:50.996Z,86.14
2022-12-18T05:31:18.214Z,85.57
2022-12-18T05:33:45.478Z,84.96
2022-12-18T05:36:12.837Z,85.03
2022-12-18T05:38:40.760Z,84.84
2022-12-18T05:41:09.134Z,84.83
2022-12-18T05:43:38.715Z,84.66
2022-12-18T05:46:14.159Z,84.80
2022-12-18T05:48:43.024Z,85.09
2022-12-18T05:51:13.557Z,85.15
2022-12-18T05:53:40.815Z,85.26
2022-12-18T05:56:11.151Z,85.30
2022-12-18T05:58:38.850Z,85.08
2022-12-18T06:01:17.926Z,85.52
2022-12-18T06:03:45.874Z,85.76
2022-12-18T06:06:23.371Z,85.57
2022-12-18T06:08:51.622Z,85.51
2022-12-18T06:11:22.538Z,85.25
2022-12-18T06:13:58.178Z,85.31
2022-12-18T06:16:26.683Z,85.08
2022-12-18T06:18:53.901Z,84.89
2022-12-18T06:21:20.923Z,85.67
2022-12-18T06:23:48.121Z,85.72
2022-12-18T06:26:15.482Z,85.67
2022-12-18T06:28:43.050Z,87.26
2022-12-18T06:31:10.875Z,86.82
2022-12-18T06:33:39.549Z,86.66
2022-12-18T06:36:12.668Z,86.36
2022-12-18T06:38:42.440Z,86.35
2022-12-18T06:41:18.900Z,85.37
2022-12-18T06:43:46.340Z,84.29
2022-12-18T06:46:14.294Z,83.81
2022-12-18T06:48:41.884Z,82.50
2022-12-18T06:51:09.065Z,81.72
2022-12-18T06:53:36.325Z,80.81
2022-12-18T06:56:09.926Z,79.95
2022-12-18T06:58:38.763Z,79.06
2022-12-18T07:01:07.898Z,78.79
2022-12-18T07:03:35.432Z,77.84
2022-12-18T07:06:02.833Z,76.45
2022-12-18T07:08:31.222Z,76.37
2022-12-18T07:10:58.478Z,75.54
2022-12-18T07:13:25.493Z,75.05
2022-12-18T07:15:52.570Z,74.11
2022-12-18T07:18:19.713Z,70.82
2022-12-18T07:20:46.662Z,70.00
2022-12-18T07:23:14.820Z,69.20
2022-12-18T07:25:41.971Z,68.77
2022-12-18T07:28:14.135Z,68.55
2022-12-18T07:30:44.271Z,68.05
2022-12-18T07:33:11.274Z,67.05
2022-12-18T07:35:38.411Z,66.61
2022-12-18T07:38:05.412Z,65.01
2022-12-18T07:40:32.601Z,65.65
2022-12-18T07:42:59.768Z,65.42
2022-12-18T07:45:26.936Z,64.24
2022-12-18T07:47:53.996Z,62.83
2022-12-18T07:50:21.109Z,62.07
2022-12-18T07:52:48.125Z,62.36
2022-12-18T07:55:15.084Z,62.29
2022-12-18T07:57:50.524Z,62.38
2022-12-18T08:00:18.828Z,65.63
2022-12-18T08:02:45.942Z,67.67
2022-12-18T08:05:13.304Z,70.70
2022-12-18T08:07:40.732Z,71.08
2022-12-18T08:10:08.429Z,71.04
2022-12-18T08:12:35.492Z,70.72
2022-12-18T08:15:02.780Z,70.42
2022-12-18T08:17:30.152Z,70.12
2022-12-18T08:19:57.229Z,69.89
2022-12-18T08:22:24.480Z,67.61
2022-12-18T08:24:51.605Z,68.98
2022-12-18T08:27:29.261Z,68.56
2022-12-18T08:29:57.662Z,68.82
2022-12-18T08:32:26.445Z,68.99
2022-12-18T08:34:53.595Z,67.60
2022-12-18T08:37:20.759Z,67.95
2022-12-18T08:39:47.826Z,68.48
2022-12-18T08:42:35.162Z,68.03
2022-12-18T08:45:02.971Z,67.74
2022-12-18T08:47:30.001Z,65.88
2022-12-18T08:49:57.091Z,66.23
2022-12-18T08:52:24.017Z,66.91
2022-12-18T08:54:51.108Z,66.99
2022-12-18T08:57:18.072Z,67.63
2022-12-18T08:59:45.112Z,67.69
2022-12-18T09:02:12.974Z,67.11
2022-12-18T09:04:41.755Z,67.73
2022-12-18T09:07:11.037Z,68.12
2022-12-18T09:09:38.453Z,68.34
2022-12-18T09:12:05.721Z,68.42
2022-12-18T09:14:32.769Z,68.19
2022-12-18T09:16:59.931Z,68.25
2022-12-18T09:19:27.085Z,66.22
2022-12-18T09:21:54.101Z,63.93
2022-12-18T09:24:24.106Z,63.08
2022-12-18T09:26:57.846Z,61.63
2022-12-18T09:29:25.238Z,61.79
2022-12-18T09:31:52.340Z,61.72
2022-12-18T09:34:19.577Z,61.92
2022-12-18T09:36:46.552Z,61.09
2022-12-18T09:39:16.001Z,60.50
2022-12-18T09:42:04.436Z,59.86
2022-12-18T09:44:44.488Z,60.34
2022-12-18T09:47:24.745Z,61.32
2022-12-18T09:49:56.353Z,59.64
2022-12-18T09:52:41.798Z,60.60
2022-12-18T09:55:37.464Z,59.66
2022-12-18T09:58:11.070Z,58.99
2022-12-18T10:00:38.161Z,57.35
2022-12-18T10:03:12.059Z,56.47
2022-12-18T10:05:52.858Z,54.47
2022-12-18T10:08:31.260Z,52.20
2022-12-18T10:11:13.303Z,51.19
2022-12-18T10:13:56.044Z,51.27
2022-12-18T10:16:48.971Z,52.65
2022-12-18T10:19:29.505Z,52.64
2022-12-18T10:22:10.856Z,51.41
2022-12-18T10:24:49.799Z,52.10
2022-12-18T10:27:19.487Z,51.05
2022-12-18T10:29:47.408Z,50.33
2022-12-18T10:32:20.974Z,49.62
2022-12-18T10:34:52.963Z,50.00
2022-12-18T10:37:28.025Z,50.18
2022-12-18T10:40:25.377Z,52.31
2022-12-18T10:43:20.427Z,50.26
2022-12-18T10:46:01.339Z,48.91
2022-12-18T10:48:29.888Z,47.59
2022-12-18T10:51:14.144Z,48.74
2022-12-18T10:53:52.722Z,49.00
2022-12-18T10:56:22.349Z,51.04
2022-12-18T10:59:07.767Z,49.70
2022-12-18T11:01:58.366Z,48.72
2022-12-18T11:04:36.423Z,47.71
2022-12-18T11:07:05.143Z,47.63
2022-12-18T11:09:37.006Z,47.79
2022-12-18T11:12:19.898Z,49.64
2022-12-18T11:14:54.997Z,48.46
2022-12-18T11:17:25.908Z,48.09
2022-12-18T11:19:59.535Z,48.47
2022-12-18T11:22:29.204Z,49.91
2022-12-18T11:27:58.040Z,50.48
2022-12-18T11:30:34.981Z,49.92
2022-12-18T11:33:08.323Z,50.51
2022-12-18T11:35:38.401Z,51.08
2022-12-18T11:38:14.161Z,50.57
2022-12-18T11:40:45.230Z,52.85
2022-12-18T11:43:35.301Z,53.99
2022-12-18T11:46:08.538Z,50.58
2022-12-18T11:48:43.494Z,53.11
2022-12-18T11:51:40.821Z,53.54
2022-12-18T11:54:15.827Z,51.87
2022-12-18T11:56:57.726Z,51.94
2022-12-18T11:59:40.360Z,52.26
2022-12-18T12:02:32.147Z,52.74
2022-12-18T12:05:37.067Z,52.05
2022-12-18T12:08:10.897Z,51.67
2022-12-18T12:11:10.287Z,53.20
2022-12-18T12:13:50.381Z,52.76
2022-12-18T12:16:46.178Z,54.85
2022-12-18T12:19:18.930Z,53.07
2022-12-18T12:22:07.709Z,52.98
2022-12-18T12:24:58.969Z,54.48
2022-12-18T12:27:45.032Z,55.17
2022-12-18T12:30:28.250Z,57.28
2022-12-18T12:33:19.215Z,58.02
2022-12-18T12:36:13.637Z,58.70
2022-12-18T12:38:52.317Z,61.00
2022-12-18T12:41:46.812Z,61.99
2022-12-18T12:44:27.778Z,64.36
2022-12-18T12:47:01.103Z,67.23
2022-12-18T12:49:37.551Z,68.26
2022-12-18T12:52:15.191Z,68.49
2022-12-18T12:54:43.370Z,67.15
2022-12-18T12:57:16.370Z,66.79
2022-12-18T12:59:59.311Z,67.78
2022-12-18T13:02:50.943Z,68.45
2022-12-18T13:05:19.112Z,69.25
2022-12-18T13:07:55.792Z,69.78
2022-12-18T13:10:32.881Z,70.11
2022-12-18T13:13:10.609Z,70.18
2022-12-18T13:15:39.874Z,70.42
2022-12-18T13:18:09.953Z,71.25
2022-12-18T13:20:45.610Z,71.81
2022-12-18T13:23:25.594Z,72.52
2022-12-18T13:25:59.947Z,72.12
2022-12-18T13:28:48.741Z,72.76
2022-12-18T13:31:41.960Z,72.80
2022-12-18T13:34:27.503Z,71.93
2022-12-18T13:37:00.703Z,72.28
2022-12-18T13:39:35.766Z,72.75
2022-12-18T13:42:05.818Z,72.24
2022-12-18T13:44:41.799Z,74.08
2022-12-18T13:47:38.566Z,73.95
2022-12-18T13:50:29.860Z,71.78
2022-12-18T13:53:04.260Z,69.68
2022-12-18T13:55:31.206Z,69.23
2022-12-18T13:58:06.260Z,68.39
2022-12-18T14:00:33.550Z,68.53
2022-12-18T14:03:01.648Z,68.08
2022-12-18T14:05:35.570Z,68.30
2022-12-18T14:08:11.305Z,67.84
2022-12-18T14:10:47.731Z,67.73
2022-12-18T14:13:32.877Z,67.37
2022-12-18T14:16:03.909Z,67.89
2022-12-18T14:18:47.378Z,68.33
2022-12-18T14:21:38.949Z,67.73
2022-12-18T14:24:21.837Z,68.18
2022-12-18T14:26:51.363Z,68.41
2022-12-18T14:29:30.536Z,68.79
2022-12-18T14:32:18.303Z,68.02
2022-12-18T14:34:57.417Z,68.14
2022-12-18T14:37:27.332Z,67.87
2022-12-18T14:39:56.480Z,68.61
2022-12-18T14:42:23.762Z,68.77
2022-12-18T14:45:12.525Z,68.37
2022-12-18T14:47:37.945Z,69.32
2022-12-18T14:50:13.362Z,70.19
2022-12-18T14:52:40.551Z,70.12
2022-12-18T14:55:20.199Z,70.46
2022-12-18T14:57:52.537Z,70.64
2022-12-18T15:00:23.573Z,71.25
2022-12-18T15:02:56.860Z,72.34
2022-12-18T15:05:30.321Z,73.26
2022-12-18T15:08:00.640Z,73.69
2022-12-18T15:10:35.485Z,74.30
2022-12-18T15:13:03.747Z,74.84
2022-12-18T15:15:44.500Z,75.66
2022-12-18T15:18:11.808Z,76.24
2022-12-18T15:21:00.096Z,77.01
2022-12-18T15:23:48.899Z,77.95
2022-12-18T15:26:18.143Z,79.13
2022-12-18T15:28:57.208Z,79.13
2022-12-18T15:31:26.509Z,80.23
2022-12-18T15:33:54.050Z,80.40
2022-12-18T15:36:26.392Z,80.81
2022-12-18T15:39:04.032Z,81.31
2022-12-18T15:41:35.803Z,81.68
2022-12-18T15:44:21.828Z,82.05
2022-12-18T15:46:49.159Z,82.81
2022-12-18T15:49:16.166Z,84.66
2022-12-18T15:51:43.691Z,84.81
2022-12-18T15:54:17.208Z,84.58
2022-12-18T15:57:03.105Z,85.05
2022-12-18T15:59:30.197Z,85.36
2022-12-18T16:01:58.027Z,85.31
2022-12-18T16:04:26.341Z,85.69
2022-12-18T16:09:40.634Z,85.55
2022-12-18T16:12:15.309Z,86.33
2022-12-18T16:14:42.314Z,86.04
2022-12-18T16:17:12.790Z,86.50
2022-12-18T16:19:40.504Z,86.49
2022-12-18T16:22:21.663Z,86.76
2022-12-18T16:24:49.356Z,86.77
2022-12-18T16:27:16.471Z,86.89
2022-12-18T16:29:43.852Z,86.80
2022-12-18T16:32:15.549Z,87.00
2022-12-18T16:34:44.809Z,86.85
2022-12-18T16:37:13.849Z,86.83
2022-12-18T16:39:42.291Z,86.54
2022-12-18T16:42:17.618Z,86.75
2022-12-18T16:44:45.841Z,87.19
2022-12-18T16:47:15.116Z,87.26
2022-12-18T16:49:46.072Z,87.47
2022-12-18T16:52:14.405Z,87.75
2022-12-18T16:54:41.414Z,87.82
2022-12-18T16:57:11.796Z,88.06
2022-12-18T16:59:38.775Z,88.02
2022-12-18T17:02:06.331Z,88.77
2022-12-18T17:04:35.136Z,88.88
2022-12-18T17:07:02.187Z,88.71
2022-12-18T17:09:29.232Z,88.46
2022-12-18T17:11:56.394Z,88.75
2022-12-18T17:14:25.375Z,89.28
2022-12-18T17:17:20.396Z,90.09
2022-12-18T17:19:44.231Z,90.28
2022-12-18T17:22:11.561Z,90.61
2022-12-18T17:24:38.784Z,90.85
2022-12-18T17:27:05.974Z,91.05
2022-12-18T17:29:33.158Z,91.33
2022-12-18T17:32:00.552Z,91.06
2022-12-18T17:34:28.326Z,91.69
2022-12-18T17:36:55.988Z,91.61
2022-12-18T17:39:23.132Z,91.71
2022-12-18T17:41:50.740Z,92.07
2022-12-18T17:44:18.612Z,92.17
2022-12-18T17:46:46.395Z,92.54
2022-12-18T17:49:14.736Z,92.78
2022-12-18T17:51:45.112Z,93.74
2022-12-18T17:54:12.314Z,95.37
2022-12-18T17:56:39.857Z,97.77
2022-12-18T17:59:07.330Z,100.00
2022-12-18T18:01:38.375Z,100.00
2022-12-18T18:04:08.244Z,100.00
2022-12-18T18:06:36.268Z,100.00
2022-12-18T18:09:06.497Z,100.00
2022-12-18T18:11:57.763Z,100.00
2022-12-18T18:14:25.915Z,100.00
2022-12-18T18:16:54.771Z,100.00
2022-12-18T18:19:25.238Z,100.00
2022-12-18T18:21:53.927Z,100.00
2022-12-18T18:24:23.694Z,100.00
2022-12-18T18:26:51.000Z,100.00
2022-12-18T18:29:27.844Z,100.00
2022-12-18T18:31:56.555Z,100.00
2022-12-18T18:34:26.814Z,100.00
2022-12-18T18:36:54.396Z,100.00
2022-12-18T18:39:21.535Z,100.00
2022-12-18T18:41:49.095Z,100.00
2022-12-18T18:44:17.785Z,100.00
2022-12-18T18:46:45.278Z,100.00
2022-12-18T18:49:13.938Z,100.00
2022-12-18T18:51:42.519Z,100.00
2022-12-18T18:54:10.303Z,100.00
2022-12-18T18:57:04.000Z,100.00
2022-12-18T18:59:31.276Z,100.00
2022-12-18T19:02:04.277Z,100.00
2022-12-18T19:04:33.892Z,100.00
2022-12-18T19:07:01.304Z,100.00
2022-12-18T19:09:28.631Z,100.00
2022-12-18T19:12:14.763Z,100.00
2022-12-18T19:14:42.446Z,100.00
2022-12-18T19:17:10.913Z,100.00
2022-12-18T19:19:38.037Z,100.00
2022-12-18T19:22:05.332Z,100.00
2022-12-18T19:24:32.452Z,100.00
2022-12-18T19:26:59.408Z,100.00
2022-12-18T19:29:26.368Z,99.59
2022-12-18T19:31:54.788Z,99.06
2022-12-18T19:34:21.764Z,99.04
2022-12-18T19:36:48.969Z,98.33
2022-12-18T19:39:18.071Z,98.33
2022-12-18T19:41:46.753Z,98.50
2022-12-18T19:44:16.064Z,99.00
2022-12-18T19:46:46.911Z,98.23
2022-12-18T19:49:18.114Z,99.03
2022-12-18T19:51:45.665Z,99.00
2022-12-18T19:54:17.088Z,98.17
2022-12-18T19:56:45.166Z,97.74
2022-12-18T19:59:12.728Z,94.85
2022-12-18T20:01:39.953Z,94.20
2022-12-18T20:04:09.077Z,94.33
2022-12-18T20:06:53.534Z,95.10
2022-12-18T20:09:22.146Z,94.49
2022-12-18T20:11:50.166Z,94.21
2022-12-18T20:14:22.788Z,94.46
2022-12-18T20:16:53.729Z,94.67
2022-12-18T20:19:24.957Z,96.19
2022-12-18T20:21:52.116Z,97.32
2022-12-18T20:24:19.424Z,98.27
2022-12-18T20:26:46.604Z,97.10
2022-12-18T20:29:13.790Z,95.61
2022-12-18T20:31:41.197Z,96.94
2022-12-18T20:34:08.446Z,97.82
2022-12-18T20:36:38.610Z,97.13
2022-12-18T20:39:07.648Z,98.17
2022-12-18T20:41:37.665Z,96.35
2022-12-18T20:44:21.665Z,98.24
2022-12-18T20:46:59.528Z,98.36
2022-12-18T20:49:27.950Z,98.15
2022-12-18T20:51:58.187Z,97.83
2022-12-18T20:54:27.417Z,100.00
2022-12-18T20:56:54.981Z,100.00
2022-12-18T20:59:23.385Z,99.96
2022-12-18T21:01:52.418Z,99.73
2022-12-18T21:04:19.866Z,100.00
2022-12-18T21:06:53.346Z,100.00
2022-12-18T21:09:24.066Z,100.00
2022-12-18T21:12:10.368Z,100.00
2022-12-18T21:14:41.625Z,100.00
2022-12-18T21:17:09.408Z,100.00
2022-12-18T21:19:36.688Z,100.00
2022-12-18T21:22:05.017Z,100.00
2022-12-18T21:24:33.001Z,100.00
2022-12-18T21:27:00.310Z,100.00
2022-12-18T21:29:27.872Z,100.00
2022-12-18T21:31:55.394Z,100.00
2022-12-18T21:34:27.746Z,100.00
2022-12-18T21:36:57.451Z,100.00
2022-12-18T21:39:26.540Z,100.00
2022-12-18T21:42:12.578Z,100.00
2022-12-18T21:44:41.840Z,100.00
2022-12-18T21:47:21.488Z,100.00
2022-12-18T21:49:49.834Z,100.00
2022-12-18T21:52:17.399Z,100.00
2022-12-18T21:54:44.367Z,100.00
2022-12-18T21:57:13.629Z,100.00
2022-12-18T21:59:42.697Z,100.00
2022-12-18T22:02:19.781Z,100.00
2022-12-18T22:04:48.130Z,100.00
2022-12-18T22:07:16.728Z,100.00
2022-12-18T22:09:43.826Z,100.00
2022-12-18T22:12:13.885Z,100.00
2022-12-18T22:14:41.087Z,100.00
2022-12-18T22:17:08.238Z,100.00
2022-12-18T22:19:42.615Z,100.00
2022-12-18T22:22:10.326Z,100.00
2022-12-18T22:24:37.431Z,100.00
2022-12-18T22:27:04.642Z,100.00
2022-12-18T22:29:50.414Z,100.00
2022-12-18T22:32:17.841Z,100.00
2022-12-18T22:35:06.937Z,100.00
2022-12-18T22:37:37.024Z,100.00
2022-12-18T22:40:06.070Z,100.00
2022-12-18T22:42:34.475Z,100.00
2022-12-18T22:45:01.544Z,100.00
2022-12-18T22:47:30.426Z,100.00
2022-12-18T22:49:58.404Z,100.00
2022-12-18T22:52:25.876Z,100.00
2022-12-18T22:54:54.433Z,100.00
2022-12-18T22:57:22.822Z,100.00
2022-12-18T22:59:51.094Z,100.00
2022-12-18T23:02:19.286Z,100.00
2022-12-18T23:04:47.810Z,100.00
2022-12-18T23:07:16.247Z,100.00
2022-12-18T23:09:43.267Z,100.00
2022-12-18T23:12:15.717Z,100.00
2022-12-18T23:14:42.737Z,100.00
2022-12-18T23:17:10.158Z,100.00
2022-12-18T23:19:37.503Z,100.00
2022-12-18T23:22:10.092Z,100.00
2022-12-18T23:24:38.863Z,100.00
2022-12-18T23:27:06.523Z,100.00
2022-12-18T23:29:38.517Z,100.00
2022-12-18T23:32:05.581Z,100.00
2022-12-18T23:34:32.643Z,100.00
2022-12-18T23:37:01.268Z,100.00
2022-12-18T23:39:29.627Z,100.00
2022-12-18T23:42:00.969Z,100.00
2022-12-18T23:44:28.364Z,100.00
2022-12-18T23:46:55.644Z,100.00
2022-12-18T23:49:23.440Z,100.00
2022-12-18T23:51:50.900Z,100.00
2022-12-18T23:54:18.935Z,100.00
2022-12-18T23:56:55.445Z,100.00
2022-12-18T23:59:25.457Z,100.00
